createdAt,value
2022-08-26T00:00:54.551Z,4.7
2022-08-26T00:07:17.555Z,4.1
2022-08-26T00:13:37.510Z,4.1
2022-08-26T00:20:00.494Z,4
2022-08-26T00:26:20.462Z,4
2022-08-26T00:32:44.040Z,4.6
2022-08-26T00:39:03.452Z,4.6
2022-08-26T00:45:26.594Z,3.2
2022-08-26T00:51:46.465Z,3.2
2022-08-26T00:58:09.482Z,3.1
2022-08-26T01:04:29.517Z,3.1
2022-08-26T01:10:52.462Z,2.9
2022-08-26T01:17:12.536Z,2.9
2022-08-26T01:23:35.461Z,4.2
2022-08-26T01:29:55.501Z,4.2
2022-08-26T01:36:18.462Z,4.7
2022-08-26T01:42:38.518Z,4.7
2022-08-26T01:49:01.466Z,9.2
2022-08-26T01:55:32.086Z,9.2
2022-08-26T02:01:44.483Z,9.7
2022-08-26T02:08:04.456Z,9.7
2022-08-26T02:14:27.487Z,15.1
2022-08-26T02:20:47.462Z,15.1
2022-08-26T02:27:10.513Z,12.9
2022-08-26T02:33:30.473Z,12.9
2022-08-26T02:39:53.502Z,17.1
2022-08-26T02:46:13.511Z,17.1
2022-08-26T02:52:36.469Z,22.3
2022-08-26T02:58:56.503Z,22.3
2022-08-26T03:05:19.461Z,18.3
2022-08-26T03:11:39.539Z,18.3
2022-08-26T03:18:02.474Z,20.2
2022-08-26T03:24:22.521Z,20.2
2022-08-26T03:30:45.701Z,24.2
2022-08-26T03:37:05.478Z,24.2
2022-08-26T03:43:28.474Z,29.5
2022-08-26T03:49:48.460Z,29.5
2022-08-26T03:56:11.520Z,23.4
2022-08-26T04:02:31.493Z,23.4
2022-08-26T04:25:01.415Z,53.2
2022-08-26T04:31:21.505Z,53.2
2022-08-26T04:37:44.456Z,50.6
2022-08-26T04:44:04.503Z,50.6
2022-08-26T04:50:27.459Z,31.2
2022-08-26T04:56:47.532Z,31.2
2022-08-26T05:03:10.791Z,26.1
2022-08-26T05:09:30.626Z,26.1
2022-08-26T05:15:53.520Z,24.8
2022-08-26T05:22:13.470Z,24.8
2022-08-26T05:28:36.558Z,20.8
2022-08-26T05:34:56.478Z,20.8
2022-08-26T05:41:19.491Z,23.3
2022-08-26T05:47:39.474Z,23.3
2022-08-26T05:54:02.464Z,22
2022-08-26T06:00:22.502Z,22
2022-08-26T06:06:45.476Z,22.2
2022-08-26T06:13:09.146Z,22.2
2022-08-26T06:19:32.837Z,22.5
2022-08-26T06:25:48.472Z,22.5
2022-08-26T06:32:11.513Z,18.4
2022-08-26T06:38:31.472Z,18.4
2022-08-26T06:44:54.498Z,13.8
2022-08-26T06:51:14.507Z,13.8
2022-08-26T06:57:37.632Z,18.1
2022-08-26T07:03:57.540Z,18.1
2022-08-26T07:10:20.473Z,16.6
2022-08-26T07:16:40.512Z,16.6
2022-08-26T07:23:03.488Z,21.1
2022-08-26T07:29:24.424Z,21.1
2022-08-26T07:35:46.532Z,15.8
2022-08-26T07:42:07.657Z,15.8
2022-08-26T07:48:29.507Z,17.6
2022-08-26T07:54:49.497Z,17.6
2022-08-26T08:01:12.506Z,13.6
2022-08-26T08:07:38.331Z,13.6
2022-08-26T08:13:56.206Z,12.8
2022-08-26T08:20:15.486Z,12.8
2022-08-26T08:26:38.530Z,15.6
2022-08-26T08:32:58.466Z,15.6
2022-08-26T08:39:21.902Z,11.2
2022-08-26T08:45:41.518Z,11.2
2022-08-26T08:52:04.491Z,14.3
2022-08-26T08:58:24.506Z,14.3
2022-08-26T09:04:47.464Z,12.5
2022-08-26T09:11:07.528Z,12.5
2022-08-26T09:17:30.475Z,9.4
2022-08-26T09:23:50.478Z,9.4
2022-08-26T09:30:13.542Z,14.7
2022-08-26T09:36:35.406Z,14.7
2022-08-26T09:42:56.520Z,16.1
2022-08-26T09:49:16.481Z,16.1
2022-08-26T09:55:39.500Z,16.2
2022-08-26T10:18:29.705Z,11.1
2022-08-26T10:24:48.331Z,11.1
2022-08-26T10:31:10.470Z,12.1
2022-08-26T10:37:30.643Z,12.1
2022-08-26T10:43:53.715Z,14
2022-08-26T10:50:13.548Z,14
2022-08-26T10:56:36.474Z,10.5
2022-08-26T11:02:56.782Z,10.5
2022-08-26T11:09:19.489Z,7.9
2022-08-26T11:15:39.540Z,7.9
2022-08-26T11:22:02.505Z,6.9
2022-08-26T11:28:22.472Z,6.9
2022-08-26T11:34:45.518Z,6.6
2022-08-26T11:41:05.657Z,6.6
2022-08-26T11:47:28.867Z,7
2022-08-26T11:53:48.509Z,7
2022-08-26T12:00:12.785Z,6.1
2022-08-26T12:06:31.552Z,6.1
2022-08-26T12:12:54.648Z,5.4
2022-08-26T12:19:14.509Z,5.4
2022-08-26T12:25:37.496Z,4.6
2022-08-26T12:31:57.502Z,4.6
2022-08-26T12:38:20.553Z,6.6
2022-08-26T12:44:40.535Z,6.6
2022-08-26T12:51:03.475Z,6.1
2022-08-26T12:57:23.520Z,6.1
2022-08-26T13:03:46.502Z,5.3
2022-08-26T13:10:07.620Z,5.3
2022-08-26T13:16:30.546Z,2.9
2022-08-26T13:22:51.859Z,2.9
2022-08-26T13:29:13.525Z,3.6
2022-08-26T13:35:33.481Z,3.6
2022-08-26T13:41:56.488Z,2
2022-08-26T13:48:19.243Z,2
2022-08-26T13:54:39.484Z,2.1
2022-08-26T14:00:59.675Z,2.1
2022-08-26T14:07:22.989Z,4.4
2022-08-26T14:13:42.549Z,4.4
2022-08-26T14:20:05.790Z,2.4
2022-08-26T14:26:28.475Z,2.4
2022-08-26T14:32:48.657Z,3.1
2022-08-26T14:39:08.481Z,3.1
2022-08-26T14:45:31.588Z,2.4
2022-08-26T14:51:51.688Z,2.4
2022-08-26T14:58:14.503Z,3
2022-08-26T15:04:34.494Z,3
2022-08-26T15:10:57.497Z,0.7
2022-08-26T15:17:17.557Z,0.7
2022-08-26T15:23:40.496Z,2.7
2022-08-26T15:30:00.519Z,2.7
2022-08-26T15:36:23.527Z,1.5
2022-08-26T15:42:43.477Z,1.5
2022-08-26T16:07:02.926Z,2.8
2022-08-26T16:13:22.513Z,2.8
2022-08-26T16:19:45.565Z,4.3
2022-08-26T16:26:05.477Z,4.3
2022-08-26T16:32:31.226Z,4.2
2022-08-26T16:38:48.493Z,4.2
2022-08-26T16:45:11.507Z,4.1
2022-08-26T16:51:31.795Z,4.1
2022-08-26T16:57:54.570Z,4.4
2022-08-26T17:04:14.524Z,4.4
2022-08-26T17:10:37.531Z,2.5
2022-08-26T17:16:57.567Z,2.5
2022-08-26T17:23:20.486Z,3
2022-08-26T17:29:40.592Z,3
2022-08-26T17:36:03.514Z,5.7
2022-08-26T17:42:29.084Z,5.7
2022-08-26T17:48:46.897Z,4.7
2022-08-26T17:55:06.556Z,4.7
2022-08-26T18:01:29.610Z,5.6
2022-08-26T18:07:49.499Z,5.6
2022-08-26T18:14:12.601Z,5.7
2022-08-26T18:20:32.583Z,5.7
2022-08-26T18:26:55.522Z,3.2
2022-08-26T18:33:15.591Z,3.2
2022-08-26T18:39:38.529Z,3
2022-08-26T18:45:58.618Z,3
2022-08-26T18:52:21.462Z,2.2
2022-08-26T18:58:41.491Z,2.2
2022-08-26T19:05:04.540Z,2.2
2022-08-26T19:11:31.920Z,2.2
2022-08-26T19:17:47.857Z,3
2022-08-26T19:24:07.544Z,3
2022-08-26T19:30:30.840Z,2
2022-08-26T19:36:50.504Z,2
2022-08-26T19:43:13.874Z,2.4
2022-08-26T19:49:33.515Z,2.4
2022-08-26T19:55:56.587Z,2.2
2022-08-26T20:02:16.618Z,2.2
2022-08-26T20:08:39.604Z,1.8
2022-08-26T20:14:59.526Z,1.8
2022-08-26T20:21:22.511Z,1.2
2022-08-26T20:27:42.570Z,1.2
2022-08-26T20:34:05.697Z,1.7
2022-08-26T20:40:25.528Z,1.7
2022-08-26T20:46:48.503Z,2.3
2022-08-26T20:53:08.542Z,2.3
2022-08-26T20:59:31.514Z,1.5
2022-08-26T21:05:51.579Z,1.5
2022-08-26T21:21:26.408Z,2.8
2022-08-26T21:27:46.478Z,2.8
2022-08-26T21:34:09.529Z,3.1
2022-08-26T21:40:29.533Z,3.1
2022-08-26T21:46:52.584Z,2.2
2022-08-26T21:53:12.569Z,2.2
2022-08-26T21:59:35.507Z,3
2022-08-26T22:22:32.478Z,4.3
2022-08-26T22:28:52.544Z,4.3
2022-08-26T22:35:28.581Z,4.3
2022-08-26T22:41:35.647Z,4.3
2022-08-26T22:47:58.580Z,2.1
2022-08-26T22:54:18.582Z,2.1
2022-08-26T23:00:41.563Z,2.7
2022-08-26T23:07:01.667Z,2.7
2022-08-26T23:13:24.552Z,1.9
2022-08-26T23:19:44.538Z,1.9
2022-08-26T23:26:07.545Z,2.4
2022-08-26T23:32:27.532Z,2.4
2022-08-26T23:38:52.374Z,1.8
2022-08-26T23:45:10.476Z,1.8
2022-08-26T23:51:33.604Z,3.3
2022-08-26T23:57:53.469Z,3.3
